Station Historical Data
Daily Summary for July 1, 2012 Units:  Both    English   Metric
« Previous Day
Next Day »
Daily Weekly Monthly Yearly Custom
  High: Low: Average:
Temperature: 101.0 °F /  38.3 °C 75.2 °F /  24 °C 88.3 °F /  31.3 °C
Dew Point: 74.0 °F /  23.3 °C 66.6 °F /  19.2 °C 69.6 °F /  20.9 °C
Humidity: 81% 34% 56%
Wind Speed: 11.0mph /  17.7km/h - 2.5mph /  4km/h
Wind Gust: 13.0mph /  20.9km/h - -
Wind- - WSW
Pressure: 29.96 in /  1014.4 hPa 29.84 in /  1010.4 hPa -
Precipitation: 0.00 in /  0 mm    
Historical Graphs
 
 
Tabular Data for July 1, 2012
Time Temperature Dew Point Pressure Wind Wind Speed Wind Gust Humidity Rainfall Rate (Hourly) Conditions
00:00 82.9 °F /  28.3 °C 67.1 °F /  19.5 °C 29.85in /  1010.7hPa Calm     59% 0.00in /  0mm
00:05 82.5 °F /  28.1 °C 67.7 °F /  19.8 °C 29.85in /  1010.7hPa Calm     61% 0.00in /  0mm
00:10 82.1 °F /  27.8 °C 67.3 °F /  19.6 °C 29.85in /  1010.7hPa Calm     61% 0.00in /  0mm
00:15 81.7 °F /  27.6 °C 66.9 °F /  19.4 °C 29.85in /  1010.7hPa Calm     61% 0.00in /  0mm
00:20 81.2 °F /  27.3 °C 66.9 °F /  19.4 °C 29.85in /  1010.7hPa Calm     62% 0.00in /  0mm
00:25 80.9 °F /  27.2 °C 66.7 °F /  19.3 °C 29.85in /  1010.7hPa Calm     62% 0.00in /  0mm
00:31 81.6 °F /  27.6 °C 66.9 °F /  19.4 °C 29.85in /  1010.7hPa Calm     61% 0.00in /  0mm
00:36 82.2 °F /  27.9 °C 66.9 °F /  19.4 °C 29.85in /  1010.7hPa Calm     60% 0.00in /  0mm
00:41 82.1 °F /  27.8 °C 67.3 °F /  19.6 °C 29.85in /  1010.7hPa Calm     61% 0.00in /  0mm
00:46 81.8 °F /  27.7 °C 67.1 °F /  19.5 °C 29.85in /  1010.7hPa Calm     61% 0.00in /  0mm
00:51 81.4 °F /  27.4 °C 66.7 °F /  19.3 °C 29.85in /  1010.7hPa Calm     61% 0.00in /  0mm
00:56 81.1 °F /  27.3 °C 67.3 °F /  19.6 °C 29.85in /  1010.7hPa Calm     63% 0.00in /  0mm
01:01 81.0 °F /  27.2 °C 67.2 °F /  19.6 °C 29.85in /  1010.7hPa Calm     63% 0.00in /  0mm
01:06 81.0 °F /  27.2 °C 67.2 °F /  19.6 °C 29.85in /  1010.7hPa Calm     63% 0.00in /  0mm
01:11 81.0 °F /  27.2 °C 67.2 °F /  19.6 °C 29.85in /  1010.7hPa Calm     63% 0.00in /  0mm
01:16 80.8 °F /  27.1 °C 67.5 °F /  19.7 °C 29.85in /  1010.7hPa Calm     64% 0.00in /  0mm
01:21 80.6 °F /  27 °C 67.8 °F /  19.9 °C 29.85in /  1010.7hPa Calm     65% 0.00in /  0mm
01:26 80.2 °F /  26.8 °C 67.4 °F /  19.7 °C 29.85in /  1010.7hPa Calm     65% 0.00in /  0mm
01:31 80.0 °F /  26.7 °C 67.2 °F /  19.6 °C 29.85in /  1010.7hPa Calm     65% 0.00in /  0mm
01:36 80.0 °F /  26.7 °C 67.2 °F /  19.6 °C 29.85in /  1010.7hPa Calm     65% 0.00in /  0mm
01:41 79.7 °F /  26.5 °C 67.3 °F /  19.6 °C 29.85in /  1010.7hPa Calm     66% 0.00in /  0mm
01:46 79.2 °F /  26.2 °C 67.3 °F /  19.6 °C 29.85in /  1010.7hPa Calm     67% 0.00in /  0mm
01:51 78.8 °F /  26 °C 67.4 °F /  19.7 °C 29.85in /  1010.7hPa Calm     68% 0.00in /  0mm
01:56 78.6 °F /  25.9 °C 67.6 °F /  19.8 °C 29.85in /  1010.7hPa Calm     69% 0.00in /  0mm
02:01 78.8 °F /  26 °C 67.4 °F /  19.7 °C 29.85in /  1010.7hPa Calm     68% 0.00in /  0mm
02:06 78.9 °F /  26.1 °C 67.9 °F /  19.9 °C 29.85in /  1010.7hPa Calm     69% 0.00in /  0mm
02:11 79.2 °F /  26.2 °C 67.7 °F /  19.8 °C 29.85in /  1010.7hPa Calm     68% 0.00in /  0mm
02:16 79.3 °F /  26.3 °C 67.8 °F /  19.9 °C 29.85in /  1010.7hPa Calm     68% 0.00in /  0mm
02:21 79.5 °F /  26.4 °C 67.6 °F /  19.8 °C 29.85in /  1010.7hPa Calm     67% 0.00in /  0mm
02:26 79.7 °F /  26.5 °C 67.8 °F /  19.9 °C 29.85in /  1010.7hPa Calm     67% 0.00in /  0mm
02:31 79.9 °F /  26.6 °C 67.5 °F /  19.7 °C 29.85in /  1010.7hPa Calm     66% 0.00in /  0mm
02:36 79.8 °F /  26.6 °C 67.9 °F /  19.9 °C 29.85in /  1010.7hPa Calm     67% 0.00in /  0mm
02:41 79.3 °F /  26.3 °C 67.4 °F /  19.7 °C 29.85in /  1010.7hPa Calm     67% 0.00in /  0mm
02:46 79.1 °F /  26.2 °C 67.6 °F /  19.8 °C 29.85in /  1010.7hPa Calm     68% 0.00in /  0mm
02:51 79.2 °F /  26.2 °C 67.3 °F /  19.6 °C 29.85in /  1010.7hPa Calm     67% 0.00in /  0mm
02:56 79.2 °F /  26.2 °C 67.7 °F /  19.8 °C 29.85in /  1010.7hPa Calm     68% 0.00in /  0mm
03:01 79.3 °F /  26.3 °C 67.4 °F /  19.7 °C 29.84in /  1010.4hPa Calm     67% 0.00in /  0mm
03:06 79.0 °F /  26.1 °C 67.1 °F /  19.5 °C 29.85in /  1010.7hPa Calm     67% 0.00in /  0mm
03:11 78.5 °F /  25.8 °C 67.1 °F /  19.5 °C 29.85in /  1010.7hPa Calm     68% 0.00in /  0mm
03:16 78.1 °F /  25.6 °C 67.9 °F /  19.9 °C 29.85in /  1010.7hPa Calm     71% 0.00in /  0mm
03:21 77.6 °F /  25.3 °C 67.5 °F /  19.7 °C 29.85in /  1010.7hPa Calm     71% 0.00in /  0mm
03:26 77.2 °F /  25.1 °C 67.5 °F /  19.7 °C 29.85in /  1010.7hPa Calm     72% 0.00in /  0mm
03:31 76.8 °F /  24.9 °C 67.5 °F /  19.7 °C 29.85in /  1010.7hPa Calm     73% 0.00in /  0mm
03:36 76.8 °F /  24.9 °C 67.5 °F /  19.7 °C 29.85in /  1010.7hPa Calm     73% 0.00in /  0mm
03:41 76.6 °F /  24.8 °C 67.7 °F /  19.8 °C 29.85in /  1010.7hPa Calm     74% 0.00in /  0mm
03:46 76.6 °F /  24.8 °C 67.7 °F /  19.8 °C 29.86in /  1011.1hPa Calm     74% 0.00in /  0mm
03:51 76.4 °F /  24.7 °C 67.5 °F /  19.7 °C 29.86in /  1011.1hPa Calm     74% 0.00in /  0mm
03:56 76.2 °F /  24.6 °C 68.1 °F /  20.1 °C 29.86in /  1011.1hPa Calm     76% 0.00in /  0mm
04:01 76.2 °F /  24.6 °C 68.1 °F /  20.1 °C 29.86in /  1011.1hPa Calm     76% 0.00in /  0mm
04:06 76.3 °F /  24.6 °C 67.8 °F /  19.9 °C 29.86in /  1011.1hPa Calm     75% 0.00in /  0mm
04:12 76.1 °F /  24.5 °C 67.6 °F /  19.8 °C 29.86in /  1011.1hPa Calm     75% 0.00in /  0mm
04:17 75.9 °F /  24.4 °C 67.8 °F /  19.9 °C 29.86in /  1011.1hPa Calm     76% 0.00in /  0mm
04:22 75.9 °F /  24.4 °C 67.8 °F /  19.9 °C 29.86in /  1011.1hPa Calm     76% 0.00in /  0mm
04:27 76.0 °F /  24.4 °C 67.9 °F /  19.9 °C 29.86in /  1011.1hPa Calm     76% 0.00in /  0mm
04:32 75.8 °F /  24.3 °C 68.1 °F /  20.1 °C 29.86in /  1011.1hPa Calm     77% 0.00in /  0mm
04:37 75.5 °F /  24.2 °C 68.2 °F /  20.1 °C 29.86in /  1011.1hPa Calm     78% 0.00in /  0mm
04:42 75.5 °F /  24.2 °C 68.5 °F /  20.3 °C 29.87in /  1011.4hPa Calm     79% 0.00in /  0mm
04:47 75.3 °F /  24.1 °C 68.3 °F /  20.2 °C 29.86in /  1011.1hPa Calm     79% 0.00in /  0mm
04:52 75.2 °F /  24 °C 68.6 °F /  20.3 °C 29.87in /  1011.4hPa Calm     80% 0.00in /  0mm
04:57 75.3 °F /  24.1 °C 69.1 °F /  20.6 °C 29.87in /  1011.4hPa Calm     81% 0.00in /  0mm
05:02 75.4 °F /  24.1 °C 68.8 °F /  20.4 °C 29.87in /  1011.4hPa Calm     80% 0.00in /  0mm
05:07 75.8 °F /  24.3 °C 68.8 °F /  20.4 °C 29.87in /  1011.4hPa NNW 2.0mph /  3.2km/h 2.0mph /  3.2km/h 79% 0.00in /  0mm
05:12 76.1 °F /  24.5 °C 68.4 °F /  20.2 °C 29.87in /  1011.4hPa NNW 1.0mph /  1.6km/h 2.0mph /  3.2km/h 77% 0.00in /  0mm
05:17 76.5 °F /  24.7 °C 68.4 °F /  20.2 °C 29.87in /  1011.4hPa NNW 2.0mph /  3.2km/h 3.0mph /  4.8km/h 76% 0.00in /  0mm
05:22 77.0 °F /  25 °C 68.5 °F /  20.3 °C 29.87in /  1011.4hPa NNW 2.0mph /  3.2km/h 3.0mph /  4.8km/h 75% 0.00in /  0mm
05:27 77.7 °F /  25.4 °C 68.8 °F /  20.4 °C 29.87in /  1011.4hPa NW 2.0mph /  3.2km/h 3.0mph /  4.8km/h 74% 0.00in /  0mm
05:32 78.1 °F /  25.6 °C 68.8 °F /  20.4 °C 29.88in /  1011.7hPa NW 3.0mph /  4.8km/h 4.0mph /  6.4km/h 73% 0.00in /  0mm
05:37 78.5 °F /  25.8 °C 68.7 °F /  20.4 °C 29.87in /  1011.4hPa NNW 2.0mph /  3.2km/h 4.0mph /  6.4km/h 72% 0.00in /  0mm
05:42 78.6 °F /  25.9 °C 68.8 °F /  20.4 °C 29.88in /  1011.7hPa NW 2.0mph /  3.2km/h 4.0mph /  6.4km/h 72% 0.00in /  0mm
05:47 78.8 °F /  26 °C 68.6 °F /  20.3 °C 29.88in /  1011.7hPa NW 3.0mph /  4.8km/h 4.0mph /  6.4km/h 71% 0.00in /  0mm
05:52 79.0 °F /  26.1 °C 68.8 °F /  20.4 °C 29.88in /  1011.7hPa NNW 2.0mph /  3.2km/h 4.0mph /  6.4km/h 71% 0.00in /  0mm
05:57 79.1 °F /  26.2 °C 68.9 °F /  20.5 °C 29.88in /  1011.7hPa NW 2.0mph /  3.2km/h 4.0mph /  6.4km/h 71% 0.00in /  0mm
06:03 79.1 °F /  26.2 °C 68.9 °F /  20.5 °C 29.88in /  1011.7hPa NNW 2.0mph /  3.2km/h 4.0mph /  6.4km/h 71% 0.00in /  0mm
06:08 79.1 °F /  26.2 °C 68.9 °F /  20.5 °C 29.88in /  1011.7hPa NW 2.0mph /  3.2km/h 3.0mph /  4.8km/h 71% 0.00in /  0mm
06:13 79.0 °F /  26.1 °C 68.8 °F /  20.4 °C 29.88in /  1011.7hPa NW 1.0mph /  1.6km/h 2.0mph /  3.2km/h 71% 0.00in /  0mm
06:18 79.0 °F /  26.1 °C 68.8 °F /  20.4 °C 29.88in /  1011.7hPa NW 2.0mph /  3.2km/h 3.0mph /  4.8km/h 71% 0.00in /  0mm
06:23 78.9 °F /  26.1 °C 68.7 °F /  20.4 °C 29.89in /  1012.1hPa NW 1.0mph /  1.6km/h 2.0mph /  3.2km/h 71% 0.00in /  0mm
06:28 78.9 °F /  26.1 °C 68.7 °F /  20.4 °C 29.89in /  1012.1hPa NW 2.0mph /  3.2km/h 3.0mph /  4.8km/h 71% 0.00in /  0mm
06:33 79.1 °F /  26.2 °C 68.9 °F /  20.5 °C 29.89in /  1012.1hPa NW 1.0mph /  1.6km/h 3.0mph /  4.8km/h 71% 0.00in /  0mm
06:38 79.0 °F /  26.1 °C 68.8 °F /  20.4 °C 29.89in /  1012.1hPa NW 1.0mph /  1.6km/h 2.0mph /  3.2km/h 71% 0.00in /  0mm
06:43 78.9 °F /  26.1 °C 68.7 °F /  20.4 °C 29.89in /  1012.1hPa NW 1.0mph /  1.6km/h 2.0mph /  3.2km/h 71% 0.00in /  0mm
06:48 78.9 °F /  26.1 °C 68.7 °F /  20.4 °C 29.89in /  1012.1hPa NNW 2.0mph /  3.2km/h 2.0mph /  3.2km/h 71% 0.00in /  0mm
06:53 78.8 °F /  26 °C 68.6 °F /  20.3 °C 29.89in /  1012.1hPa North 2.0mph /  3.2km/h 2.0mph /  3.2km/h 71% 0.00in /  0mm
06:58 78.8 °F /  26 °C 68.6 °F /  20.3 °C 29.90in /  1012.4hPa Calm   2.0mph /  3.2km/h 71% 0.00in /  0mm
07:03 78.6 °F /  25.9 °C 68.8 °F /  20.4 °C 29.90in /  1012.4hPa Calm     72% 0.00in /  0mm
07:08 78.7 °F /  25.9 °C 68.9 °F /  20.5 °C 29.90in /  1012.4hPa NNW 1.0mph /  1.6km/h 1.0mph /  1.6km/h 72% 0.00in /  0mm
07:13 78.8 °F /  26 °C 68.6 °F /  20.3 °C 29.90in /  1012.4hPa Calm     71% 0.00in /  0mm
07:18 79.0 °F /  26.1 °C 68.8 °F /  20.4 °C 29.90in /  1012.4hPa Calm   1.0mph /  1.6km/h 71% 0.00in /  0mm
07:23 79.1 °F /  26.2 °C 68.9 °F /  20.5 °C 29.90in /  1012.4hPa Calm   1.0mph /  1.6km/h 71% 0.00in /  0mm
07:28 79.3 °F /  26.3 °C 69.1 °F /  20.6 °C 29.90in /  1012.4hPa Calm     71% 0.00in /  0mm
07:33 79.3 °F /  26.3 °C 69.1 °F /  20.6 °C 29.91in /  1012.8hPa Calm     71% 0.00in /  0mm
07:38 79.4 °F /  26.3 °C 69.2 °F /  20.7 °C 29.91in /  1012.8hPa Calm     71% 0.00in /  0mm
07:43 79.8 °F /  26.6 °C 69.6 °F /  20.9 °C 29.91in /  1012.8hPa Calm     71% 0.00in /  0mm
07:48 80.2 °F /  26.8 °C 70.4 °F /  21.3 °C 29.91in /  1012.8hPa Calm     72% 0.00in /  0mm
07:53 81.0 °F /  27.2 °C 71.1 °F /  21.7 °C 29.91in /  1012.8hPa Calm     72% 0.00in /  0mm
07:58 81.4 °F /  27.4 °C 71.5 °F /  21.9 °C 29.91in /  1012.8hPa Calm     72% 0.00in /  0mm
08:03 81.8 °F /  27.7 °C 71.5 °F /  21.9 °C 29.91in /  1012.8hPa Calm     71% 0.00in /  0mm
08:08 81.5 °F /  27.5 °C 70.4 °F /  21.3 °C 29.92in /  1013.1hPa NNW 1.0mph /  1.6km/h 1.0mph /  1.6km/h 69% 0.00in /  0mm
08:13 81.3 °F /  27.4 °C 70.6 °F /  21.4 °C 29.92in /  1013.1hPa Calm   1.0mph /  1.6km/h 70% 0.00in /  0mm
08:18 81.8 °F /  27.7 °C 71.5 °F /  21.9 °C 29.92in /  1013.1hPa Calm     71% 0.00in /  0mm
08:23 82.2 °F /  27.9 °C 71.0 °F /  21.7 °C 29.92in /  1013.1hPa NNW 1.0mph /  1.6km/h 1.0mph /  1.6km/h 69% 0.00in /  0mm
08:28 82.4 °F /  28 °C 70.8 °F /  21.6 °C 29.92in /  1013.1hPa WNW 1.0mph /  1.6km/h 2.0mph /  3.2km/h 68% 0.00in /  0mm
08:33 82.7 °F /  28.2 °C 70.6 °F /  21.4 °C 29.92in /  1013.1hPa WNW 1.0mph /  1.6km/h 2.0mph /  3.2km/h 67% 0.00in /  0mm
08:38 83.0 °F /  28.3 °C 70.9 °F /  21.6 °C 29.92in /  1013.1hPa WNW 2.0mph /  3.2km/h 2.0mph /  3.2km/h 67% 0.00in /  0mm
08:43 83.4 °F /  28.6 °C 71.3 °F /  21.8 °C 29.92in /  1013.1hPa WNW 2.0mph /  3.2km/h 3.0mph /  4.8km/h 67% 0.00in /  0mm
08:48 83.7 °F /  28.7 °C 71.6 °F /  22 °C 29.92in /  1013.1hPa WNW 1.0mph /  1.6km/h 3.0mph /  4.8km/h 67% 0.00in /  0mm
08:53 84.0 °F /  28.9 °C 71.4 °F /  21.9 °C 29.93in /  1013.4hPa WNW 3.0mph /  4.8km/h 4.0mph /  6.4km/h 66% 0.00in /  0mm
08:58 84.4 °F /  29.1 °C 71.8 °F /  22.1 °C 29.93in /  1013.4hPa WNW 4.0mph /  6.4km/h 5.0mph /  8km/h 66% 0.00in /  0mm
09:03 84.8 °F /  29.3 °C 72.2 °F /  22.3 °C 29.93in /  1013.4hPa WNW 3.0mph /  4.8km/h 4.0mph /  6.4km/h 66% 0.00in /  0mm
09:08 85.3 °F /  29.6 °C 72.2 °F /  22.3 °C 29.94in /  1013.8hPa NW 2.0mph /  3.2km/h 4.0mph /  6.4km/h 65% 0.00in /  0mm
09:13 85.7 °F /  29.8 °C 72.1 °F /  22.3 °C 29.94in /  1013.8hPa WNW 3.0mph /  4.8km/h 7.0mph /  11.3km/h 64% 0.00in /  0mm
09:18 86.2 °F /  30.1 °C 71.7 °F /  22.1 °C 29.94in /  1013.8hPa WNW 5.0mph /  8km/h 6.0mph /  9.7km/h 62% 0.00in /  0mm
09:23 86.5 °F /  30.3 °C 71.5 °F /  21.9 °C 29.94in /  1013.8hPa West 5.0mph /  8km/h 6.0mph /  9.7km/h 61% 0.00in /  0mm
09:28 86.6 °F /  30.3 °C 71.6 °F /  22 °C 29.94in /  1013.8hPa WNW 4.0mph /  6.4km/h 6.0mph /  9.7km/h 61% 0.00in /  0mm
09:33 86.8 °F /  30.4 °C 71.8 °F /  22.1 °C 29.94in /  1013.8hPa WNW 3.0mph /  4.8km/h 8.0mph /  12.9km/h 61% 0.00in /  0mm
09:38 87.1 °F /  30.6 °C 72.5 °F /  22.5 °C 29.94in /  1013.8hPa WNW 4.0mph /  6.4km/h 6.0mph /  9.7km/h 62% 0.00in /  0mm
09:43 87.3 °F /  30.7 °C 71.7 °F /  22.1 °C 29.95in /  1014.1hPa WNW 4.0mph /  6.4km/h 7.0mph /  11.3km/h 60% 0.00in /  0mm
09:48 87.5 °F /  30.8 °C 71.9 °F /  22.2 °C 29.95in /  1014.1hPa NW 2.0mph /  3.2km/h 8.0mph /  12.9km/h 60% 0.00in /  0mm
09:53 88.0 °F /  31.1 °C 72.4 °F /  22.4 °C 29.95in /  1014.1hPa WNW 4.0mph /  6.4km/h 7.0mph /  11.3km/h 60% 0.00in /  0mm
09:58 88.1 °F /  31.2 °C 72.5 °F /  22.5 °C 29.95in /  1014.1hPa WNW 4.0mph /  6.4km/h 7.0mph /  11.3km/h 60% 0.00in /  0mm
10:04 88.1 °F /  31.2 °C 73.0 °F /  22.8 °C 29.95in /  1014.1hPa NW 7.0mph /  11.3km/h 7.0mph /  11.3km/h 61% 0.00in /  0mm
10:09 88.2 °F /  31.2 °C 72.6 °F /  22.6 °C 29.95in /  1014.1hPa WNW 4.0mph /  6.4km/h 8.0mph /  12.9km/h 60% 0.00in /  0mm
10:14 88.6 °F /  31.4 °C 72.9 °F /  22.7 °C 29.95in /  1014.1hPa WNW 4.0mph /  6.4km/h 5.0mph /  8km/h 60% 0.00in /  0mm
10:19 88.9 °F /  31.6 °C 72.7 °F /  22.6 °C 29.95in /  1014.1hPa NW 4.0mph /  6.4km/h 7.0mph /  11.3km/h 59% 0.00in /  0mm
10:24 89.1 °F /  31.7 °C 73.4 °F /  23 °C 29.95in /  1014.1hPa West 5.0mph /  8km/h 7.0mph /  11.3km/h 60% 0.00in /  0mm
10:29 89.2 °F /  31.8 °C 74.0 °F /  23.3 °C 29.95in /  1014.1hPa WNW 4.0mph /  6.4km/h 6.0mph /  9.7km/h 61% 0.00in /  0mm
10:34 89.2 °F /  31.8 °C 72.5 °F /  22.5 °C 29.95in /  1014.1hPa West 5.0mph /  8km/h 7.0mph /  11.3km/h 58% 0.00in /  0mm
10:39 89.6 °F /  32 °C 73.4 °F /  23 °C 29.95in /  1014.1hPa WNW 3.0mph /  4.8km/h 7.0mph /  11.3km/h 59% 0.00in /  0mm
10:44 89.9 °F /  32.2 °C 73.2 °F /  22.9 °C 29.95in /  1014.1hPa WNW 2.0mph /  3.2km/h 5.0mph /  8km/h 58% 0.00in /  0mm
10:49 90.1 °F /  32.3 °C 72.8 °F /  22.7 °C 29.95in /  1014.1hPa WNW 4.0mph /  6.4km/h 8.0mph /  12.9km/h 57% 0.00in /  0mm
10:54 90.4 °F /  32.4 °C 73.6 °F /  23.1 °C 29.95in /  1014.1hPa WNW 6.0mph /  9.7km/h 7.0mph /  11.3km/h 58% 0.00in /  0mm
10:59 90.7 °F /  32.6 °C 72.9 °F /  22.7 °C 29.95in /  1014.1hPa NW 4.0mph /  6.4km/h 6.0mph /  9.7km/h 56% 0.00in /  0mm
11:04 90.7 °F /  32.6 °C 73.4 °F /  23 °C 29.95in /  1014.1hPa NW 4.0mph /  6.4km/h 7.0mph /  11.3km/h 57% 0.00in /  0mm
11:09 91.1 °F /  32.8 °C 73.8 °F /  23.2 °C 29.95in /  1014.1hPa NW 6.0mph /  9.7km/h 7.0mph /  11.3km/h 57% 0.00in /  0mm
11:14 91.1 °F /  32.8 °C 72.7 °F /  22.6 °C 29.95in /  1014.1hPa West 2.0mph /  3.2km/h 9.0mph /  14.5km/h 55% 0.00in /  0mm
11:19 91.3 °F /  32.9 °C 72.3 °F /  22.4 °C 29.95in /  1014.1hPa NW 6.0mph /  9.7km/h 7.0mph /  11.3km/h 54% 0.00in /  0mm
11:24 91.9 °F /  33.3 °C 73.4 °F /  23 °C 29.96in /  1014.4hPa WNW 2.0mph /  3.2km/h 5.0mph /  8km/h 55% 0.00in /  0mm
11:29 92.0 °F /  33.3 °C 73.0 °F /  22.8 °C 29.96in /  1014.4hPa NW 8.0mph /  12.9km/h 9.0mph /  14.5km/h 54% 0.00in /  0mm
11:34 91.9 °F /  33.3 °C 71.8 °F /  22.1 °C 29.96in /  1014.4hPa WNW 7.0mph /  11.3km/h 9.0mph /  14.5km/h 52% 0.00in /  0mm
11:39 92.2 °F /  33.4 °C 72.6 °F /  22.6 °C 29.96in /  1014.4hPa WNW 5.0mph /  8km/h 6.0mph /  9.7km/h 53% 0.00in /  0mm
11:44 92.3 °F /  33.5 °C 72.7 °F /  22.6 °C 29.96in /  1014.4hPa NW 7.0mph /  11.3km/h 8.0mph /  12.9km/h 53% 0.00in /  0mm
11:49 92.6 °F /  33.7 °C 71.3 °F /  21.8 °C 29.96in /  1014.4hPa West 8.0mph /  12.9km/h 12.0mph /  19.3km/h 50% 0.00in /  0mm
11:54 93.0 °F /  33.9 °C 72.2 °F /  22.3 °C 29.96in /  1014.4hPa West 6.0mph /  9.7km/h 8.0mph /  12.9km/h 51% 0.00in /  0mm
11:59 93.4 °F /  34.1 °C 71.4 °F /  21.9 °C 29.96in /  1014.4hPa NW 6.0mph /  9.7km/h 8.0mph /  12.9km/h 49% 0.00in /  0mm
12:04 93.7 °F /  34.3 °C 71.7 °F /  22.1 °C 29.96in /  1014.4hPa WNW 6.0mph /  9.7km/h 6.0mph /  9.7km/h 49% 0.00in /  0mm
12:09 93.8 °F /  34.3 °C 71.8 °F /  22.1 °C 29.96in /  1014.4hPa WNW 1.0mph /  1.6km/h 5.0mph /  8km/h 49% 0.00in /  0mm
12:14 94.1 °F /  34.5 °C 71.4 °F /  21.9 °C 29.96in /  1014.4hPa WNW 4.0mph /  6.4km/h 10.0mph /  16.1km/h 48% 0.00in /  0mm
12:19 94.3 °F /  34.6 °C 71.6 °F /  22 °C 29.96in /  1014.4hPa NW 4.0mph /  6.4km/h 6.0mph /  9.7km/h 48% 0.00in /  0mm
12:24 94.8 °F /  34.9 °C 70.8 °F /  21.6 °C 29.96in /  1014.4hPa NNE 2.0mph /  3.2km/h 8.0mph /  12.9km/h 46% 0.00in /  0mm
12:29 95.2 °F /  35.1 °C 70.5 °F /  21.4 °C 29.96in /  1014.4hPa WNW 4.0mph /  6.4km/h 6.0mph /  9.7km/h 45% 0.00in /  0mm
12:34 95.1 °F /  35.1 °C 70.4 °F /  21.3 °C 29.96in /  1014.4hPa WNW 3.0mph /  4.8km/h 6.0mph /  9.7km/h 45% 0.00in /  0mm
12:39 95.4 °F /  35.2 °C 71.3 °F /  21.8 °C 29.96in /  1014.4hPa WNW 2.0mph /  3.2km/h 5.0mph /  8km/h 46% 0.00in /  0mm
12:44 96.0 °F /  35.6 °C 70.6 °F /  21.4 °C 29.95in /  1014.1hPa NW 1.0mph /  1.6km/h 3.0mph /  4.8km/h 44% 0.00in /  0mm
12:49 96.0 °F /  35.6 °C 71.2 °F /  21.8 °C 29.95in /  1014.1hPa Calm   4.0mph /  6.4km/h 45% 0.00in /  0mm
12:54 95.7 °F /  35.4 °C 69.6 °F /  20.9 °C 29.95in /  1014.1hPa NNE 2.0mph /  3.2km/h 7.0mph /  11.3km/h 43% 0.00in /  0mm
12:59 96.2 °F /  35.7 °C 70.8 °F /  21.6 °C 29.95in /  1014.1hPa SE 3.0mph /  4.8km/h 3.0mph /  4.8km/h 44% 0.00in /  0mm
13:04 97.7 °F /  36.5 °C 71.4 °F /  21.9 °C 29.95in /  1014.1hPa NW 2.0mph /  3.2km/h 3.0mph /  4.8km/h 43% 0.00in /  0mm
13:09 96.8 °F /  36 °C 69.2 °F /  20.7 °C 29.95in /  1014.1hPa WNW 4.0mph /  6.4km/h 6.0mph /  9.7km/h 41% 0.00in /  0mm
13:14 96.6 °F /  35.9 °C 70.4 °F /  21.3 °C 29.95in /  1014.1hPa North 5.0mph /  8km/h 11.0mph /  17.7km/h 43% 0.00in /  0mm
13:19 97.0 °F /  36.1 °C 70.8 °F /  21.6 °C 29.95in /  1014.1hPa NE 5.0mph /  8km/h 5.0mph /  8km/h 43% 0.00in /  0mm
13:24 97.0 °F /  36.1 °C 70.8 °F /  21.6 °C 29.94in /  1013.8hPa ESE 1.0mph /  1.6km/h 3.0mph /  4.8km/h 43% 0.00in /  0mm
13:29 97.5 °F /  36.4 °C 70.6 °F /  21.4 °C 29.94in /  1013.8hPa SW 8.0mph /  12.9km/h 9.0mph /  14.5km/h 42% 0.00in /  0mm
13:34 97.2 °F /  36.2 °C 70.3 °F /  21.3 °C 29.94in /  1013.8hPa WSW 5.0mph /  8km/h 8.0mph /  12.9km/h 42% 0.00in /  0mm
13:39 97.3 °F /  36.3 °C 69.7 °F /  20.9 °C 29.94in /  1013.8hPa South 3.0mph /  4.8km/h 5.0mph /  8km/h 41% 0.00in /  0mm
13:45 97.8 °F /  36.6 °C 70.8 °F /  21.6 °C 29.94in /  1013.8hPa SW 3.0mph /  4.8km/h 7.0mph /  11.3km/h 42% 0.00in /  0mm
13:50 97.7 °F /  36.5 °C 70.0 °F /  21.1 °C 29.94in /  1013.8hPa SE 3.0mph /  4.8km/h 7.0mph /  11.3km/h 41% 0.00in /  0mm
13:55 98.0 °F /  36.7 °C 70.3 °F /  21.3 °C 29.94in /  1013.8hPa SW 5.0mph /  8km/h 7.0mph /  11.3km/h 41% 0.00in /  0mm
14:00 98.3 °F /  36.8 °C 69.8 °F /  21 °C 29.94in /  1013.8hPa WSW 7.0mph /  11.3km/h 8.0mph /  12.9km/h 40% 0.00in /  0mm
14:05 99.1 °F /  37.3 °C 69.8 °F /  21 °C 29.94in /  1013.8hPa SSW 3.0mph /  4.8km/h 6.0mph /  9.7km/h 39% 0.00in /  0mm
14:10 99.2 °F /  37.3 °C 70.7 °F /  21.5 °C 29.93in /  1013.4hPa WSW 9.0mph /  14.5km/h 9.0mph /  14.5km/h 40% 0.00in /  0mm
14:15 98.5 °F /  36.9 °C 70.0 °F /  21.1 °C 29.93in /  1013.4hPa SE 2.0mph /  3.2km/h 8.0mph /  12.9km/h 40% 0.00in /  0mm
14:20 98.7 °F /  37.1 °C 70.2 °F /  21.2 °C 29.93in /  1013.4hPa SSE 3.0mph /  4.8km/h 9.0mph /  14.5km/h 40% 0.00in /  0mm
14:25 98.7 °F /  37.1 °C 70.2 °F /  21.2 °C 29.93in /  1013.4hPa WSW 11.0mph /  17.7km/h 11.0mph /  17.7km/h 40% 0.00in /  0mm
14:30 98.0 °F /  36.7 °C 68.8 °F /  20.4 °C 29.93in /  1013.4hPa SW 5.0mph /  8km/h 10.0mph /  16.1km/h 39% 0.00in /  0mm
14:35 98.1 °F /  36.7 °C 68.2 °F /  20.1 °C 29.93in /  1013.4hPa WSW 10.0mph /  16.1km/h 10.0mph /  16.1km/h 38% 0.00in /  0mm
14:40 98.2 °F /  36.8 °C 69.0 °F /  20.6 °C 29.93in /  1013.4hPa South 6.0mph /  9.7km/h 10.0mph /  16.1km/h 39% 0.00in /  0mm
14:45 98.7 °F /  37.1 °C 68.7 °F /  20.4 °C 29.92in /  1013.1hPa SW 5.0mph /  8km/h 11.0mph /  17.7km/h 38% 0.00in /  0mm
14:50 99.0 °F /  37.2 °C 70.5 °F /  21.4 °C 29.92in /  1013.1hPa WSW 5.0mph /  8km/h 8.0mph /  12.9km/h 40% 0.00in /  0mm
14:55 99.1 °F /  37.3 °C 69.1 °F /  20.6 °C 29.92in /  1013.1hPa SSE 4.0mph /  6.4km/h 8.0mph /  12.9km/h 38% 0.00in /  0mm
15:00 99.6 °F /  37.6 °C 70.3 °F /  21.3 °C 29.92in /  1013.1hPa WSW 10.0mph /  16.1km/h 11.0mph /  17.7km/h 39% 0.00in /  0mm
15:05 99.7 °F /  37.6 °C 68.8 °F /  20.4 °C 29.92in /  1013.1hPa SW 3.0mph /  4.8km/h 5.0mph /  8km/h 37% 0.00in /  0mm
15:10 99.9 °F /  37.7 °C 69.0 °F /  20.6 °C 29.92in /  1013.1hPa SSW 7.0mph /  11.3km/h 12.0mph /  19.3km/h 37% 0.00in /  0mm
15:15 99.6 °F /  37.6 °C 68.7 °F /  20.4 °C 29.92in /  1013.1hPa ESE 2.0mph /  3.2km/h 9.0mph /  14.5km/h 37% 0.00in /  0mm
15:20 99.4 °F /  37.4 °C 69.3 °F /  20.7 °C 29.91in /  1012.8hPa SW 4.0mph /  6.4km/h 4.0mph /  6.4km/h 38% 0.00in /  0mm
15:25 99.5 °F /  37.5 °C 68.6 °F /  20.3 °C 29.92in /  1013.1hPa SSE 6.0mph /  9.7km/h 8.0mph /  12.9km/h 37% 0.00in /  0mm
15:30 99.8 °F /  37.7 °C 69.7 °F /  20.9 °C 29.91in /  1012.8hPa SSW 4.0mph /  6.4km/h 5.0mph /  8km/h 38% 0.00in /  0mm
15:35 99.3 °F /  37.4 °C 69.2 °F /  20.7 °C 29.91in /  1012.8hPa SW 1.0mph /  1.6km/h 5.0mph /  8km/h 38% 0.00in /  0mm
15:40 99.0 °F /  37.2 °C 68.2 °F /  20.1 °C 29.91in /  1012.8hPa SSW 5.0mph /  8km/h 13.0mph /  20.9km/h 37% 0.00in /  0mm
15:45 99.1 °F /  37.3 °C 68.3 °F /  20.2 °C 29.91in /  1012.8hPa SSE 7.0mph /  11.3km/h 7.0mph /  11.3km/h 37% 0.00in /  0mm
15:50 99.0 °F /  37.2 °C 69.7 °F /  20.9 °C 29.90in /  1012.4hPa SE 7.0mph /  11.3km/h 8.0mph /  12.9km/h 39% 0.00in /  0mm
15:55 99.1 °F /  37.3 °C 68.3 °F /  20.2 °C 29.90in /  1012.4hPa SSE 7.0mph /  11.3km/h 11.0mph /  17.7km/h 37% 0.00in /  0mm
16:00 99.2 °F /  37.3 °C 68.4 °F /  20.2 °C 29.90in /  1012.4hPa SW 3.0mph /  4.8km/h 4.0mph /  6.4km/h 37% 0.00in /  0mm
16:05 99.5 °F /  37.5 °C 67.8 °F /  19.9 °C 29.90in /  1012.4hPa SW 8.0mph /  12.9km/h 11.0mph /  17.7km/h 36% 0.00in /  0mm
16:10 99.6 °F /  37.6 °C 68.7 °F /  20.4 °C 29.90in /  1012.4hPa SE 5.0mph /  8km/h 6.0mph /  9.7km/h 37% 0.00in /  0mm
16:16 99.9 °F /  37.7 °C 67.4 °F /  19.7 °C 29.90in /  1012.4hPa SE 5.0mph /  8km/h 8.0mph /  12.9km/h 35% 0.00in /  0mm
16:21 100.1 °F /  37.8 °C 67.5 °F /  19.7 °C 29.89in /  1012.1hPa SSW 3.0mph /  4.8km/h 5.0mph /  8km/h 35% 0.00in /  0mm
16:26 99.6 °F /  37.6 °C 67.9 °F /  19.9 °C 29.89in /  1012.1hPa South 3.0mph /  4.8km/h 5.0mph /  8km/h 36% 0.00in /  0mm
16:31 99.4 °F /  37.4 °C 67.8 °F /  19.9 °C 29.89in /  1012.1hPa SSW 3.0mph /  4.8km/h 9.0mph /  14.5km/h 36% 0.00in /  0mm
16:36 100.3 °F /  37.9 °C 69.3 °F /  20.7 °C 29.89in /  1012.1hPa SW 4.0mph /  6.4km/h 8.0mph /  12.9km/h 37% 0.00in /  0mm
16:41 100.6 °F /  38.1 °C 68.8 °F /  20.4 °C 29.89in /  1012.1hPa WSW 11.0mph /  17.7km/h 11.0mph /  17.7km/h 36% 0.00in /  0mm
16:46 100.4 °F /  38 °C 67.8 °F /  19.9 °C 29.89in /  1012.1hPa SW 3.0mph /  4.8km/h 8.0mph /  12.9km/h 35% 0.00in /  0mm
16:51 100.5 °F /  38.1 °C 68.7 °F /  20.4 °C 29.88in /  1011.7hPa SSW 6.0mph /  9.7km/h 9.0mph /  14.5km/h 36% 0.00in /  0mm
16:56 101.0 °F /  38.3 °C 68.3 °F /  20.2 °C 29.88in /  1011.7hPa West 3.0mph /  4.8km/h 6.0mph /  9.7km/h 35% 0.00in /  0mm
17:01 100.6 °F /  38.1 °C 67.1 °F /  19.5 °C 29.88in /  1011.7hPa WNW 4.0mph /  6.4km/h 10.0mph /  16.1km/h 34% 0.00in /  0mm
17:06 100.1 °F /  37.8 °C 67.5 °F /  19.7 °C 29.88in /  1011.7hPa WSW 5.0mph /  8km/h 7.0mph /  11.3km/h 35% 0.00in /  0mm
17:11 100.1 °F /  37.8 °C 67.5 °F /  19.7 °C 29.88in /  1011.7hPa WNW 4.0mph /  6.4km/h 7.0mph /  11.3km/h 35% 0.00in /  0mm
17:16 100.0 °F /  37.8 °C 68.3 °F /  20.2 °C 29.88in /  1011.7hPa WSW 4.0mph /  6.4km/h 8.0mph /  12.9km/h 36% 0.00in /  0mm
17:21 100.0 °F /  37.8 °C 66.6 °F /  19.2 °C 29.87in /  1011.4hPa WNW 4.0mph /  6.4km/h 8.0mph /  12.9km/h 34% 0.00in /  0mm
17:26 99.5 °F /  37.5 °C 67.8 °F /  19.9 °C 29.87in /  1011.4hPa West 4.0mph /  6.4km/h 8.0mph /  12.9km/h 36% 0.00in /  0mm
17:31 99.7 °F /  37.6 °C 68.8 °F /  20.4 °C 29.87in /  1011.4hPa West 3.0mph /  4.8km/h 5.0mph /  8km/h 37% 0.00in /  0mm
17:36 100.3 °F /  37.9 °C 68.5 °F /  20.3 °C 29.86in /  1011.1hPa West 6.0mph /  9.7km/h 7.0mph /  11.3km/h 36% 0.00in /  0mm
17:41 99.9 °F /  37.7 °C 68.2 °F /  20.1 °C 29.86in /  1011.1hPa West 2.0mph /  3.2km/h 5.0mph /  8km/h 36% 0.00in /  0mm
17:46 99.9 °F /  37.7 °C 69.0 °F /  20.6 °C 29.86in /  1011.1hPa SW 8.0mph /  12.9km/h 9.0mph /  14.5km/h 37% 0.00in /  0mm
17:51 99.7 °F /  37.6 °C 68.0 °F /  20 °C 29.86in /  1011.1hPa SW 9.0mph /  14.5km/h 11.0mph /  17.7km/h 36% 0.00in /  0mm
17:56 99.2 °F /  37.3 °C 67.6 °F /  19.8 °C 29.86in /  1011.1hPa SSW 4.0mph /  6.4km/h 8.0mph /  12.9km/h 36% 0.00in /  0mm
18:01 99.6 °F /  37.6 °C 68.7 °F /  20.4 °C 29.86in /  1011.1hPa SW 5.0mph /  8km/h 9.0mph /  14.5km/h 37% 0.00in /  0mm
18:06 99.2 °F /  37.3 °C 68.4 °F /  20.2 °C 29.85in /  1010.7hPa WNW 4.0mph /  6.4km/h 8.0mph /  12.9km/h 37% 0.00in /  0mm
18:11 98.3 °F /  36.8 °C 69.1 °F /  20.6 °C 29.85in /  1010.7hPa West 5.0mph /  8km/h 10.0mph /  16.1km/h 39% 0.00in /  0mm
18:16 97.7 °F /  36.5 °C 68.6 °F /  20.3 °C 29.85in /  1010.7hPa West 3.0mph /  4.8km/h 8.0mph /  12.9km/h 39% 0.00in /  0mm
18:21 97.8 °F /  36.6 °C 69.4 °F /  20.8 °C 29.85in /  1010.7hPa West 4.0mph /  6.4km/h 7.0mph /  11.3km/h 40% 0.00in /  0mm
18:26 98.2 °F /  36.8 °C 69.8 °F /  21 °C 29.85in /  1010.7hPa West 7.0mph /  11.3km/h 7.0mph /  11.3km/h 40% 0.00in /  0mm
18:31 98.0 °F /  36.7 °C 68.8 °F /  20.4 °C 29.85in /  1010.7hPa WNW 8.0mph /  12.9km/h 9.0mph /  14.5km/h 39% 0.00in /  0mm
18:36 97.9 °F /  36.6 °C 70.2 °F /  21.2 °C 29.85in /  1010.7hPa WNW 7.0mph /  11.3km/h 8.0mph /  12.9km/h 41% 0.00in /  0mm
18:41 97.9 °F /  36.6 °C 69.5 °F /  20.8 °C 29.85in /  1010.7hPa West 4.0mph /  6.4km/h 7.0mph /  11.3km/h 40% 0.00in /  0mm
18:46 98.0 °F /  36.7 °C 69.6 °F /  20.9 °C 29.85in /  1010.7hPa West 5.0mph /  8km/h 7.0mph /  11.3km/h 40% 0.00in /  0mm
18:51 97.8 °F /  36.6 °C 69.4 °F /  20.8 °C 29.85in /  1010.7hPa WNW 4.0mph /  6.4km/h 9.0mph /  14.5km/h 40% 0.00in /  0mm
18:56 97.9 °F /  36.6 °C 69.5 °F /  20.8 °C 29.85in /  1010.7hPa West 5.0mph /  8km/h 5.0mph /  8km/h 40% 0.00in /  0mm
19:01 97.9 °F /  36.6 °C 69.5 °F /  20.8 °C 29.85in /  1010.7hPa WSW 5.0mph /  8km/h 8.0mph /  12.9km/h 40% 0.00in /  0mm
19:06 97.9 °F /  36.6 °C 69.5 °F /  20.8 °C 29.85in /  1010.7hPa WNW 5.0mph /  8km/h 7.0mph /  11.3km/h 40% 0.00in /  0mm
19:11 97.7 °F /  36.5 °C 70.0 °F /  21.1 °C 29.85in /  1010.7hPa WNW 3.0mph /  4.8km/h 5.0mph /  8km/h 41% 0.00in /  0mm
19:16 97.6 °F /  36.4 °C 69.9 °F /  21.1 °C 29.85in /  1010.7hPa WNW 4.0mph /  6.4km/h 6.0mph /  9.7km/h 41% 0.00in /  0mm
19:21 97.3 °F /  36.3 °C 69.7 °F /  20.9 °C 29.85in /  1010.7hPa WNW 4.0mph /  6.4km/h 8.0mph /  12.9km/h 41% 0.00in /  0mm
19:26 97.1 °F /  36.2 °C 69.5 °F /  20.8 °C 29.85in /  1010.7hPa WSW 4.0mph /  6.4km/h 6.0mph /  9.7km/h 41% 0.00in /  0mm
19:32 97.0 °F /  36.1 °C 70.1 °F /  21.2 °C 29.85in /  1010.7hPa West 5.0mph /  8km/h 6.0mph /  9.7km/h 42% 0.00in /  0mm
19:37 96.8 °F /  36 °C 69.9 °F /  21.1 °C 29.85in /  1010.7hPa West 3.0mph /  4.8km/h 6.0mph /  9.7km/h 42% 0.00in /  0mm
19:42 96.8 °F /  36 °C 70.6 °F /  21.4 °C 29.85in /  1010.7hPa WSW 4.0mph /  6.4km/h 5.0mph /  8km/h 43% 0.00in /  0mm
19:47 96.7 °F /  35.9 °C 69.8 °F /  21 °C 29.86in /  1011.1hPa West 5.0mph /  8km/h 8.0mph /  12.9km/h 42% 0.00in /  0mm
19:52 96.6 °F /  35.9 °C 70.4 °F /  21.3 °C 29.86in /  1011.1hPa West 3.0mph /  4.8km/h 7.0mph /  11.3km/h 43% 0.00in /  0mm
19:57 96.5 °F /  35.8 °C 69.7 °F /  20.9 °C 29.87in /  1011.4hPa West 5.0mph /  8km/h 7.0mph /  11.3km/h 42% 0.00in /  0mm
20:02 96.4 °F /  35.8 °C 70.9 °F /  21.6 °C 29.87in /  1011.4hPa WNW 3.0mph /  4.8km/h 5.0mph /  8km/h 44% 0.00in /  0mm
20:07 96.1 °F /  35.6 °C 70.7 °F /  21.5 °C 29.86in /  1011.1hPa West 6.0mph /  9.7km/h 7.0mph /  11.3km/h 44% 0.00in /  0mm
20:12 95.9 °F /  35.5 °C 70.5 °F /  21.4 °C 29.87in /  1011.4hPa West 4.0mph /  6.4km/h 5.0mph /  8km/h 44% 0.00in /  0mm
20:17 95.6 °F /  35.3 °C 70.9 °F /  21.6 °C 29.87in /  1011.4hPa WNW 5.0mph /  8km/h 5.0mph /  8km/h 45% 0.00in /  0mm
20:22 95.4 °F /  35.2 °C 70.7 °F /  21.5 °C 29.87in /  1011.4hPa WSW 1.0mph /  1.6km/h 4.0mph /  6.4km/h 45% 0.00in /  0mm
20:27 95.1 °F /  35.1 °C 71.1 °F /  21.7 °C 29.88in /  1011.7hPa WSW 2.0mph /  3.2km/h 4.0mph /  6.4km/h 46% 0.00in /  0mm
20:32 94.9 °F /  34.9 °C 70.9 °F /  21.6 °C 29.88in /  1011.7hPa West 2.0mph /  3.2km/h 3.0mph /  4.8km/h 46% 0.00in /  0mm
20:37 94.6 °F /  34.8 °C 70.6 °F /  21.4 °C 29.88in /  1011.7hPa West 2.0mph /  3.2km/h 3.0mph /  4.8km/h 46% 0.00in /  0mm
20:42 94.2 °F /  34.6 °C 71.5 °F /  21.9 °C 29.87in /  1011.4hPa West 1.0mph /  1.6km/h 2.0mph /  3.2km/h 48% 0.00in /  0mm
20:47 93.8 °F /  34.3 °C 71.2 °F /  21.8 °C 29.87in /  1011.4hPa West 1.0mph /  1.6km/h 2.0mph /  3.2km/h 48% 0.00in /  0mm
20:52 93.4 °F /  34.1 °C 70.8 °F /  21.6 °C 29.87in /  1011.4hPa WSW 2.0mph /  3.2km/h 4.0mph /  6.4km/h 48% 0.00in /  0mm
20:57 92.9 °F /  33.8 °C 70.9 °F /  21.6 °C 29.87in /  1011.4hPa West 1.0mph /  1.6km/h 3.0mph /  4.8km/h 49% 0.00in /  0mm
21:02 92.4 °F /  33.6 °C 70.5 °F /  21.4 °C 29.87in /  1011.4hPa WSW 2.0mph /  3.2km/h 2.0mph /  3.2km/h 49% 0.00in /  0mm
21:07 92.0 °F /  33.3 °C 70.7 °F /  21.5 °C 29.87in /  1011.4hPa SW 2.0mph /  3.2km/h 2.0mph /  3.2km/h 50% 0.00in /  0mm
21:12 91.4 °F /  33 °C 70.7 °F /  21.5 °C 29.87in /  1011.4hPa Calm   1.0mph /  1.6km/h 51% 0.00in /  0mm
21:17 90.8 °F /  32.7 °C 70.2 °F /  21.2 °C 29.87in /  1011.4hPa WSW 1.0mph /  1.6km/h 1.0mph /  1.6km/h 51% 0.00in /  0mm
21:22 90.4 °F /  32.4 °C 70.4 °F /  21.3 °C 29.87in /  1011.4hPa Calm   1.0mph /  1.6km/h 52% 0.00in /  0mm
21:27 90.1 °F /  32.3 °C 70.1 °F /  21.2 °C 29.86in /  1011.1hPa NW 1.0mph /  1.6km/h 2.0mph /  3.2km/h 52% 0.00in /  0mm
21:32 89.9 °F /  32.2 °C 70.5 °F /  21.4 °C 29.86in /  1011.1hPa NW 2.0mph /  3.2km/h 3.0mph /  4.8km/h 53% 0.00in /  0mm
21:37 89.6 °F /  32 °C 70.2 °F /  21.2 °C 29.86in /  1011.1hPa NW 1.0mph /  1.6km/h 4.0mph /  6.4km/h 53% 0.00in /  0mm
21:42 89.3 °F /  31.8 °C 70.5 °F /  21.4 °C 29.87in /  1011.4hPa Calm   2.0mph /  3.2km/h 54% 0.00in /  0mm
21:47 89.0 °F /  31.7 °C 70.8 °F /  21.6 °C 29.87in /  1011.4hPa Calm   1.0mph /  1.6km/h 55% 0.00in /  0mm
21:52 88.6 °F /  31.4 °C 70.4 °F /  21.3 °C 29.87in /  1011.4hPa WNW 1.0mph /  1.6km/h 2.0mph /  3.2km/h 55% 0.00in /  0mm
21:58 88.3 °F /  31.3 °C 70.6 °F /  21.4 °C 29.87in /  1011.4hPa Calm   1.0mph /  1.6km/h 56% 0.00in /  0mm
22:03 88.0 °F /  31.1 °C 70.9 °F /  21.6 °C 29.88in /  1011.7hPa WNW 1.0mph /  1.6km/h 1.0mph /  1.6km/h 57% 0.00in /  0mm
22:08 87.4 °F /  30.8 °C 70.8 °F /  21.6 °C 29.88in /  1011.7hPa SSE 1.0mph /  1.6km/h 2.0mph /  3.2km/h 58% 0.00in /  0mm
22:13 87.0 °F /  30.6 °C 70.4 °F /  21.3 °C 29.89in /  1012.1hPa SSE 1.0mph /  1.6km/h 2.0mph /  3.2km/h 58% 0.00in /  0mm
22:18 86.4 °F /  30.2 °C 70.4 °F /  21.3 °C 29.89in /  1012.1hPa South 1.0mph /  1.6km/h 1.0mph /  1.6km/h 59% 0.00in /  0mm
22:23 85.7 °F /  29.8 °C 70.7 °F /  21.5 °C 29.89in /  1012.1hPa SSE 2.0mph /  3.2km/h 2.0mph /  3.2km/h 61% 0.00in /  0mm
22:28 85.2 °F /  29.6 °C 70.7 °F /  21.5 °C 29.89in /  1012.1hPa SSE 2.0mph /  3.2km/h 2.0mph /  3.2km/h 62% 0.00in /  0mm
22:33 85.0 °F /  29.4 °C 70.5 °F /  21.4 °C 29.89in /  1012.1hPa SE 2.0mph /  3.2km/h 2.0mph /  3.2km/h 62% 0.00in /  0mm
22:38 85.0 °F /  29.4 °C 70.5 °F /  21.4 °C 29.90in /  1012.4hPa SSE 1.0mph /  1.6km/h 2.0mph /  3.2km/h 62% 0.00in /  0mm
22:43 84.8 °F /  29.3 °C 70.3 °F /  21.3 °C 29.90in /  1012.4hPa Calm   1.0mph /  1.6km/h 62% 0.00in /  0mm
22:48 84.6 °F /  29.2 °C 70.6 °F /  21.4 °C 29.90in /  1012.4hPa Calm     63% 0.00in /  0mm
22:53 84.2 °F /  29 °C 70.2 °F /  21.2 °C 29.91in /  1012.8hPa Calm     63% 0.00in /  0mm
22:58 83.9 °F /  28.8 °C 70.4 °F /  21.3 °C 29.91in /  1012.8hPa SSE 1.0mph /  1.6km/h 1.0mph /  1.6km/h 64% 0.00in /  0mm
23:03 83.7 °F /  28.7 °C 70.7 °F /  21.5 °C 29.91in /  1012.8hPa SSE 1.0mph /  1.6km/h 1.0mph /  1.6km/h 65% 0.00in /  0mm
23:08 83.4 °F /  28.6 °C 70.4 °F /  21.3 °C 29.91in /  1012.8hPa SSW 1.0mph /  1.6km/h 1.0mph /  1.6km/h 65% 0.00in /  0mm
23:13 83.2 °F /  28.4 °C 70.7 °F /  21.5 °C 29.92in /  1013.1hPa SSW 1.0mph /  1.6km/h 1.0mph /  1.6km/h 66% 0.00in /  0mm
23:18 83.1 °F /  28.4 °C 70.6 °F /  21.4 °C 29.92in /  1013.1hPa Calm   1.0mph /  1.6km/h 66% 0.00in /  0mm
23:23 83.0 °F /  28.3 °C 70.5 °F /  21.4 °C 29.91in /  1012.8hPa SW 1.0mph /  1.6km/h 1.0mph /  1.6km/h 66% 0.00in /  0mm
23:28 83.1 °F /  28.4 °C 70.6 °F /  21.4 °C 29.92in /  1013.1hPa SW 3.0mph /  4.8km/h 3.0mph /  4.8km/h 66% 0.00in /  0mm
23:33 83.5 °F /  28.6 °C 70.9 °F /  21.6 °C 29.91in /  1012.8hPa WSW 1.0mph /  1.6km/h 2.0mph /  3.2km/h 66% 0.00in /  0mm
23:38 83.6 °F /  28.7 °C 71.1 °F /  21.7 °C 29.91in /  1012.8hPa SW 2.0mph /  3.2km/h 2.0mph /  3.2km/h 66% 0.00in /  0mm
23:43 83.6 °F /  28.7 °C 70.6 °F /  21.4 °C 29.92in /  1013.1hPa WSW 1.0mph /  1.6km/h 2.0mph /  3.2km/h 65% 0.00in /  0mm
23:48 83.6 °F /  28.7 °C 70.6 °F /  21.4 °C 29.91in /  1012.8hPa SW 1.0mph /  1.6km/h 1.0mph /  1.6km/h 65% 0.00in /  0mm
23:53 83.6 °F /  28.7 °C 70.6 °F /  21.4 °C 29.91in /  1012.8hPa SW 1.0mph /  1.6km/h 1.0mph /  1.6km/h 65% 0.00in /  0mm
23:58 83.3 °F /  28.5 °C 70.8 °F /  21.6 °C 29.92in /  1013.1hPa Calm   1.0mph /  1.6km/h 66% 0.00in /  0mm
Compliments of Weather Underground